Time;durP1;ratioP1;P1;durP2;ratioP2;P2;SDS_P1;SDS_P2;PMS_P1;PMS_P2;Temp;Humidity;BMP_temperature;BMP_pressure;BME280_temperature;BME280_humidity;BME280_pressure;Samples;Min_cycle;Max_cycle;Signal;HPM_P1;HPM_P2
2021/03/27 00:00:15;;;;;;;9.23;6.17;;;7.60;99.90;;;;;;5073411;28;20598;-77
2021/03/27 00:02:51;;;;;;;10.43;5.80;;;7.60;99.90;;;;;;5072151;28;20166;-77
2021/03/27 00:05:24;;;;;;;7.10;4.50;;;7.60;99.90;;;;;;5073464;28;20185;-77
2021/03/27 00:08:04;;;;;;;6.70;4.30;;;7.60;99.90;;;;;;5073734;28;20692;-76
2021/03/27 00:10:40;;;;;;;5.50;3.80;;;7.60;99.90;;;;;;5073470;28;20194;-77
2021/03/27 00:13:06;;;;;;;4.70;3.63;;;7.60;99.90;;;;;;5073495;28;20165;-76
2021/03/27 00:15:34;;;;;;;5.93;4.07;;;7.60;99.90;;;;;;5073330;28;20176;-77
2021/03/27 00:18:20;;;;;;;9.10;4.03;;;7.50;99.90;;;;;;5071674;28;20249;-77
2021/03/27 00:21:29;;;;;;;7.97;3.83;;;7.40;99.90;;;;;;5073457;28;20231;-76
2021/03/27 00:24:10;;;;;;;6.00;4.17;;;7.40;99.90;;;;;;5031243;28;20174;-76
2021/03/27 00:26:44;;;;;;;6.17;3.93;;;7.30;99.90;;;;;;5031251;28;20227;-77
2021/03/27 00:29:21;;;;;;;6.40;4.30;;;7.30;99.90;;;;;;5057228;28;20222;-76
2021/03/27 00:32:03;;;;;;;5.37;4.03;;;7.20;99.90;;;;;;5073126;28;20163;-77
2021/03/27 00:34:33;;;;;;;6.77;3.77;;;7.20;99.90;;;;;;5073094;28;20165;-77
2021/03/27 00:37:02;;;;;;;7.17;3.87;;;7.20;99.90;;;;;;5073025;28;20584;-77
2021/03/27 00:39:46;;;;;;;6.60;4.20;;;7.20;99.90;;;;;;5072778;28;20208;-77
2021/03/27 00:42:37;;;;;;;7.40;3.60;;;7.30;99.90;;;;;;5071687;28;20167;-76
2021/03/27 00:45:26;;;;;;;6.73;3.80;;;7.30;99.90;;;;;;5073734;28;20161;-77
2021/03/27 00:47:55;;;;;;;5.10;4.20;;;7.30;99.90;;;;;;5076428;28;20194;-77
2021/03/27 00:50:38;;;;;;;5.97;3.77;;;7.40;99.90;;;;;;5076489;28;20199;-77
2021/03/27 00:53:48;;;;;;;5.93;4.57;;;7.50;99.90;;;;;;5075486;28;20522;-77
2021/03/27 00:56:38;;;;;;;8.10;4.60;;;7.50;99.90;;;;;;5076909;28;20565;-76
2021/03/27 00:59:08;;;;;;;5.70;4.20;;;7.50;99.90;;;;;;5076234;28;20204;-77
2021/03/27 01:01:39;;;;;;;5.80;3.77;;;7.40;99.90;;;;;;5075758;28;20173;-77
2021/03/27 01:04:09;;;;;;;8.50;3.97;;;7.40;99.90;;;;;;5076598;28;20179;-76
2021/03/27 01:06:47;;;;;;;4.37;3.50;;;7.30;99.90;;;;;;5076648;28;20258;-77
2021/03/27 01:09:15;;;;;;;8.37;3.80;;;7.30;99.90;;;;;;5074795;28;20540;-77
2021/03/27 01:11:49;;;;;;;5.57;4.13;;;7.20;99.90;;;;;;5076569;28;20225;-77
2021/03/27 01:14:20;;;;;;;4.33;3.53;;;7.20;99.90;;;;;;5076238;28;20210;-76
2021/03/27 01:16:54;;;;;;;8.23;4.33;;;7.20;99.90;;;;;;5075032;28;20586;-76
2021/03/27 01:19:24;;;;;;;5.30;4.30;;;7.20;99.90;;;;;;5075980;28;20209;-77
2021/03/27 01:21:54;;;;;;;5.53;3.73;;;7.20;99.90;;;;;;5075097;28;20526;-77
2021/03/27 01:24:24;;;;;;;5.60;3.80;;;7.20;99.90;;;;;;5076023;28;20181;-77
2021/03/27 01:26:54;;;;;;;4.33;3.73;;;7.10;99.90;;;;;;5074744;28;20173;-76
2021/03/27 01:29:26;;;;;;;5.43;3.97;;;7.00;99.90;;;;;;5075615;28;20205;-77
2021/03/27 01:32:15;;;;;;;6.07;3.50;;;6.80;99.90;;;;;;5075897;28;20253;-77
2021/03/27 01:34:44;;;;;;;7.80;3.80;;;6.70;99.90;;;;;;5075142;28;20175;-77
2021/03/27 01:37:16;;;;;;;4.40;4.00;;;6.70;99.90;;;;;;5075990;28;20171;-78
2021/03/27 01:39:48;;;;;;;7.27;4.57;;;6.70;99.90;;;;;;5074511;28;20170;-77
2021/03/27 01:42:19;;;;;;;5.23;3.57;;;6.60;99.90;;;;;;5081645;28;20612;-77
2021/03/27 01:45:09;;;;;;;6.40;3.37;;;6.50;99.90;;;;;;5086381;28;20187;-77
2021/03/27 01:47:48;;;;;;;8.97;5.23;;;6.50;99.90;;;;;;5085838;28;20201;-76
2021/03/27 01:50:19;;;;;;;9.67;5.97;;;6.50;99.90;;;;;;5075984;28;20331;-77
2021/03/27 01:53:17;;;;;;;33.23;17.10;;;6.50;99.90;;;;;;5075905;28;20170;-76
2021/03/27 01:56:01;;;;;;;5.90;4.63;;;6.60;99.90;;;;;;5051336;28;20239;-76
2021/03/27 01:58:38;;;;;;;31.43;14.60;;;6.60;99.90;;;;;;5074609;28;20206;-76
2021/03/27 02:01:06;;;;;;;29.37;14.43;;;6.60;99.90;;;;;;5073921;28;20536;-77
2021/03/27 02:03:44;;;;;;;29.37;13.57;;;6.50;99.90;;;;;;5074009;28;20227;-77
2021/03/27 02:06:13;;;;;;;46.27;21.53;;;6.50;99.90;;;;;;5075538;28;20219;-76
2021/03/27 02:08:45;;;;;;;29.10;16.53;;;6.50;99.90;;;;;;5075194;28;20223;-77
2021/03/27 02:11:29;;;;;;;16.00;10.90;;;6.50;99.90;;;;;;5073908;28;20282;-76
2021/03/27 02:14:23;;;;;;;19.00;12.50;;;6.50;99.90;;;;;;5073905;28;20167;-76
2021/03/27 02:17:01;;;;;;;14.60;9.87;;;6.40;99.90;;;;;;5075170;28;20189;-76
2021/03/27 02:19:42;;;;;;;17.40;12.13;;;6.40;99.90;;;;;;5073477;28;20202;-76
2021/03/27 02:22:34;;;;;;;11.67;7.63;;;6.40;99.90;;;;;;5074930;28;20216;-76
2021/03/27 02:25:18;;;;;;;8.90;6.47;;;6.40;99.90;;;;;;5075143;28;20164;-76
2021/03/27 02:28:09;;;;;;;10.57;5.73;;;6.50;99.90;;;;;;5073335;28;20248;-77
2021/03/27 02:30:41;;;;;;;8.43;5.57;;;6.50;99.90;;;;;;5073347;28;20576;-76
2021/03/27 02:33:18;;;;;;;10.47;5.30;;;6.50;99.90;;;;;;5074660;28;20242;-77
2021/03/27 02:36:04;;;;;;;10.97;5.63;;;6.50;99.90;;;;;;5073488;28;20508;-76
2021/03/27 02:38:58;;;;;;;7.70;5.53;;;6.50;99.90;;;;;;5074432;28;20198;-77
2021/03/27 02:42:19;;;;;;;9.83;5.80;;;6.60;99.90;;;;;;5073370;28;20178;-76
2021/03/27 02:45:05;;;;;;;6.63;5.20;;;6.70;99.90;;;;;;5056626;28;20236;-76
2021/03/27 02:47:45;;;;;;;9.53;5.43;;;6.90;99.90;;;;;;5074289;28;20192;-77
2021/03/27 02:50:13;;;;;;;12.20;6.53;;;7.10;99.90;;;;;;5072907;28;20201;-76
2021/03/27 02:52:51;;;;;;;9.83;5.80;;;7.30;99.90;;;;;;5074254;28;20184;-77
2021/03/27 02:55:59;;;;;;;8.03;5.70;;;7.40;99.90;;;;;;5074372;28;20639;-76
2021/03/27 02:58:38;;;;;;;8.10;5.07;;;7.50;99.90;;;;;;5081438;28;20203;-77
2021/03/27 03:01:19;;;;;;;9.37;5.70;;;7.50;99.90;;;;;;5074419;28;20678;-76
2021/03/27 03:03:54;;;;;;;7.03;5.10;;;7.60;99.90;;;;;;5074119;28;20216;-77
2021/03/27 03:06:32;;;;;;;8.17;5.87;;;7.60;99.90;;;;;;5073888;28;20155;-76
2021/03/27 03:09:19;;;;;;;9.63;5.87;;;7.50;99.90;;;;;;5072650;28;20602;-76
2021/03/27 03:11:55;;;;;;;8.57;5.87;;;7.50;99.90;;;;;;5074292;28;20167;-76
2021/03/27 03:14:40;;;;;;;9.97;5.93;;;7.40;99.90;;;;;;5072764;28;20511;-77
2021/03/27 03:17:37;;;;;;;8.73;5.00;;;7.40;99.90;;;;;;5073849;28;20186;-77
2021/03/27 03:20:24;;;;;;;7.67;5.57;;;7.30;99.90;;;;;;5074111;28;20159;-77
2021/03/27 03:23:06;;;;;;;9.23;6.17;;;7.30;99.90;;;;;;5072574;28;20175;-76
2021/03/27 03:25:34;;;;;;;10.90;6.50;;;7.30;99.90;;;;;;5073733;28;20164;-76
2021/03/27 03:28:18;;;;;;;9.40;6.00;;;7.40;99.90;;;;;;5073607;28;20195;-77
2021/03/27 03:31:20;;;;;;;7.90;6.10;;;7.40;99.90;;;;;;5081559;28;20202;-77
2021/03/27 03:34:13;;;;;;;9.33;6.10;;;7.40;99.90;;;;;;5081893;28;20173;-76
2021/03/27 03:37:04;;;;;;;8.73;6.53;;;7.50;99.90;;;;;;5077486;28;20640;-77
2021/03/27 03:39:45;;;;;;;8.27;5.83;;;7.50;99.90;;;;;;5075130;28;20696;-76
2021/03/27 03:42:20;;;;;;;9.60;6.13;;;7.60;99.90;;;;;;5074819;28;20686;-76
2021/03/27 03:44:59;;;;;;;7.67;5.97;;;7.70;99.90;;;;;;5073561;28;20300;-76
2021/03/27 03:47:52;;;;;;;9.03;6.33;;;7.80;99.90;;;;;;5074864;28;20155;-76
2021/03/27 03:50:26;;;;;;;8.90;5.47;;;7.90;99.90;;;;;;5074543;28;20196;-77
2021/03/27 03:53:00;;;;;;;5.83;4.87;;;8.10;99.90;;;;;;5073964;28;20205;-77
2021/03/27 03:55:36;;;;;;;8.93;5.53;;;8.40;99.90;;;;;;5073785;28;20169;-76
2021/03/27 03:58:13;;;;;;;7.47;4.53;;;8.60;99.90;;;;;;5072139;28;20672;-76
2021/03/27 04:00:46;;;;;;;9.30;5.17;;;8.60;99.90;;;;;;5072279;28;20560;-76
2021/03/27 04:03:38;;;;;;;6.80;4.73;;;8.60;99.90;;;;;;5072869;28;20231;-76
2021/03/27 04:06:19;;;;;;;6.53;4.97;;;8.60;99.90;;;;;;5073465;28;20219;-76
2021/03/27 04:09:05;;;;;;;5.90;4.53;;;8.60;99.90;;;;;;5071852;28;20729;-76
2021/03/27 04:11:44;;;;;;;5.30;3.47;;;8.60;99.90;;;;;;5072094;28;20555;-76
2021/03/27 04:14:25;;;;;;;7.47;5.17;;;8.60;99.90;;;;;;5073571;28;20186;-76
2021/03/27 04:16:57;;;;;;;6.80;5.03;;;8.60;99.90;;;;;;5073422;28;20190;-76
2021/03/27 04:19:26;;;;;;;9.67;4.67;;;8.60;99.90;;;;;;5071824;28;20661;-76
2021/03/27 04:22:10;;;;;;;4.90;4.27;;;8.60;99.90;;;;;;5076945;28;20176;-76
2021/03/27 04:24:57;;;;;;;7.43;4.70;;;8.50;99.90;;;;;;5077838;28;20170;-76
2021/03/27 04:27:29;;;;;;;5.17;3.47;;;8.50;99.90;;;;;;5075569;28;20179;-78
2021/03/27 04:30:04;;;;;;;3.97;3.17;;;8.40;99.90;;;;;;5077269;28;20593;-76
2021/03/27 04:32:38;;;;;;;7.00;4.50;;;8.40;99.90;;;;;;5077262;28;20178;-76
2021/03/27 04:35:12;;;;;;;6.87;4.93;;;8.30;99.90;;;;;;5075687;28;20175;-76
2021/03/27 04:37:43;;;;;;;5.23;4.70;;;8.30;99.90;;;;;;5076916;28;20548;-76
2021/03/27 04:40:30;;;;;;;5.27;4.60;;;8.30;99.90;;;;;;5077324;28;20187;-76
2021/03/27 04:43:00;;;;;;;5.37;4.13;;;8.20;99.90;;;;;;5077171;28;20174;-76
2021/03/27 04:45:30;;;;;;;6.40;4.37;;;8.20;99.90;;;;;;5076790;28;20175;-76
2021/03/27 04:48:19;;;;;;;4.40;3.70;;;8.20;99.90;;;;;;5076662;28;20195;-77
2021/03/27 04:51:06;;;;;;;4.37;3.73;;;8.10;99.90;;;;;;5076939;28;20188;-76
2021/03/27 04:53:40;;;;;;;3.80;2.87;;;8.10;99.90;;;;;;5076754;28;20521;-77
2021/03/27 04:56:29;;;;;;;4.57;3.87;;;8.00;99.90;;;;;;5079897;28;20182;-77
2021/03/27 04:59:16;;;;;;;4.57;3.73;;;8.00;99.90;;;;;;5086453;28;20658;-76
2021/03/27 05:02:02;;;;;;;6.00;4.87;;;8.00;99.90;;;;;;5087111;28;20183;-76
2021/03/27 05:04:50;;;;;;;6.27;4.77;;;7.90;99.90;;;;;;5078696;28;20216;-77
2021/03/27 05:07:38;;;;;;;5.53;4.23;;;7.90;99.90;;;;;;5076445;28;20173;-77
2021/03/27 05:10:19;;;;;;;5.27;4.10;;;7.80;99.90;;;;;;5076267;28;20188;-76
2021/03/27 05:13:18;;;;;;;7.57;3.70;;;7.80;99.90;;;;;;5076663;28;20171;-76
2021/03/27 05:16:02;;;;;;;5.93;4.73;;;7.60;99.90;;;;;;5076245;28;20177;-76
2021/03/27 05:19:00;;;;;;;5.03;4.20;;;7.50;99.90;;;;;;5075930;28;20221;-77
2021/03/27 05:21:37;;;;;;;5.20;4.43;;;7.50;99.90;;;;;;5076454;28;20161;-76
2021/03/27 05:24:15;;;;;;;7.50;3.27;;;7.50;99.90;;;;;;5074746;28;20195;-77
2021/03/27 05:26:51;;;;;;;5.67;3.43;;;7.40;99.90;;;;;;5076344;28;20604;-76
2021/03/27 05:29:32;;;;;;;3.23;2.80;;;7.40;99.90;;;;;;5075739;28;20204;-76
2021/03/27 05:32:35;;;;;;;2.47;2.23;;;7.40;99.90;;;;;;5074692;28;20689;-76
2021/03/27 05:35:15;;;;;;;3.17;2.60;;;7.30;99.90;;;;;;5075879;28;20597;-76
2021/03/27 05:37:59;;;;;;;4.53;2.50;;;7.30;99.90;;;;;;5075608;28;20553;-77
2021/03/27 05:40:25;;;;;;;4.77;2.80;;;7.20;99.90;;;;;;5075830;28;20162;-76
2021/03/27 05:43:22;;;;;;;3.20;2.73;;;7.20;99.90;;;;;;5075839;28;20189;-76
2021/03/27 05:45:47;;;;;;;2.33;1.90;;;7.20;99.90;;;;;;5074465;28;20186;-76
2021/03/27 05:48:50;;;;;;;2.73;2.53;;;7.10;99.90;;;;;;5075409;28;20206;-77
2021/03/27 05:51:40;;;;;;;3.10;2.13;;;7.10;99.90;;;;;;5074236;28;20207;-76
2021/03/27 05:54:24;;;;;;;4.83;2.70;;;7.00;99.90;;;;;;5075650;28;20158;-77
2021/03/27 05:57:20;;;;;;;3.27;2.20;;;7.00;99.90;;;;;;5075511;28;20157;-76
2021/03/27 05:59:55;;;;;;;3.80;2.80;;;7.00;99.90;;;;;;5075377;28;20211;-76
2021/03/27 06:02:47;;;;;;;2.90;2.60;;;7.10;99.90;;;;;;5075797;28;20613;-78
2021/03/27 06:05:51;;;;;;;4.70;2.80;;;7.10;99.90;;;;;;5075427;28;20542;-76
2021/03/27 06:08:26;;;;;;;4.27;2.83;;;7.10;99.90;;;;;;5075293;28;20204;-77
2021/03/27 06:11:16;;;;;;;5.70;2.97;;;7.10;99.90;;;;;;5073928;28;20302;-77
2021/03/27 06:14:00;;;;;;;5.57;3.97;;;7.10;99.90;;;;;;5075244;28;20218;-77
2021/03/27 06:16:37;;;;;;;5.70;2.53;;;7.00;99.90;;;;;;5075261;28;20164;-77
2021/03/27 06:19:07;;;;;;;3.33;2.10;;;6.90;99.90;;;;;;5075119;28;20204;-76
2021/03/27 06:21:44;;;;;;;4.30;2.80;;;6.80;99.90;;;;;;5073758;28;20704;-77
2021/03/27 06:24:47;;;;;;;5.17;3.23;;;6.70;99.90;;;;;;5073658;28;20179;-77
2021/03/27 06:27:45;;;;;;;4.20;3.07;;;6.60;99.90;;;;;;5075391;28;20175;-78
2021/03/27 06:30:31;;;;;;;2.80;2.50;;;6.60;99.90;;;;;;5074757;28;20207;-77
2021/03/27 06:33:00;;;;;;;7.20;2.77;;;6.50;99.90;;;;;;5073671;28;20167;-78
2021/03/27 06:36:00;;;;;;;4.00;2.20;;;6.50;99.90;;;;;;5078481;28;20176;-77
2021/03/27 06:38:29;;;;;;;8.37;2.43;;;6.40;99.90;;;;;;5094997;28;20201;-77
2021/03/27 06:41:00;;;;;;;2.90;2.30;;;6.40;99.90;;;;;;5094878;28;20168;-77
2021/03/27 06:43:40;;;;;;;4.40;2.90;;;6.40;99.90;;;;;;5092804;28;20183;-76
2021/03/27 06:46:37;;;;;;;3.07;2.67;;;6.40;99.90;;;;;;5084289;28;20640;-77
2021/03/27 06:49:24;;;;;;;5.73;3.20;;;6.40;99.90;;;;;;5072632;28;20201;-78
2021/03/27 06:52:27;;;;;;;3.50;2.50;;;6.40;99.90;;;;;;5072945;28;20214;-77
2021/03/27 06:54:59;;;;;;;10.30;4.87;;;6.40;99.90;;;;;;5073895;28;20174;-77
2021/03/27 06:57:40;;;;;;;5.00;2.23;;;6.50;99.90;;;;;;5074402;28;20162;-77
2021/03/27 07:00:38;;;;;;;3.60;2.40;;;6.50;99.90;;;;;;5064493;28;20631;-77
2021/03/27 07:03:36;;;;;;;3.90;2.00;;;6.50;99.90;;;;;;5057210;28;20164;-77
2021/03/27 07:06:36;;;;;;;5.53;3.13;;;6.40;99.90;;;;;;5053286;28;20680;-76
2021/03/27 07:09:40;;;;;;;2.43;2.23;;;6.50;99.90;;;;;;5054029;28;20194;-76
2021/03/27 07:12:21;;;;;;;3.87;2.50;;;6.50;99.90;;;;;;5052587;28;20582;-77
2021/03/27 07:15:16;;;;;;;5.07;3.90;;;6.60;99.90;;;;;;5054019;28;20613;-77
2021/03/27 07:17:45;;;;;;;2.90;2.57;;;6.60;99.90;;;;;;5053707;28;20420;-77
2021/03/27 07:20:34;;;;;;;4.23;3.20;;;6.60;99.90;;;;;;5055182;28;20275;-77
2021/03/27 07:23:25;;;;;;;2.43;2.23;;;6.60;99.90;;;;;;5054860;28;20188;-77
2021/03/27 07:26:25;;;;;;;70.27;39.10;;;6.60;99.90;;;;;;5056038;28;20192;-77
2021/03/27 07:29:02;;;;;;;26.80;22.03;;;6.60;99.90;;;;;;5068030;28;20206;-77
2021/03/27 07:31:53;;;;;;;3.30;3.00;;;6.60;99.90;;;;;;5073451;27;20198;-76
2021/03/27 07:34:52;;;;;;;3.70;2.03;;;6.40;99.90;;;;;;5073929;28;20209;-76
2021/03/27 07:37:32;;;;;;;3.73;3.27;;;5.60;99.90;;;;;;5073655;28;20638;-76
2021/03/27 07:40:14;;;;;;;4.13;2.00;;;4.90;99.90;;;;;;5073746;28;20201;-77
2021/03/27 07:43:01;;;;;;;2.17;1.97;;;4.60;99.90;;;;;;5073266;28;20180;-77
2021/03/27 07:45:56;;;;;;;1.53;1.20;;;4.50;99.90;;;;;;5073967;28;20531;-77
2021/03/27 07:48:40;;;;;;;18.73;8.37;;;4.40;99.90;;;;;;5073692;28;20198;-77
2021/03/27 07:51:11;;;;;;;2.73;1.47;;;4.20;99.90;;;;;;5073139;28;20197;-77
2021/03/27 07:53:55;;;;;;;5.97;4.17;;;4.00;99.90;;;;;;5073583;28;20199;-77
2021/03/27 07:56:33;;;;;;;3.20;2.70;;;4.00;99.90;;;;;;5069772;28;20642;-76
2021/03/27 07:59:46;;;;;;;4.17;3.77;;;4.00;99.90;;;;;;5069947;28;20284;-77
2021/03/27 08:02:18;;;;;;;4.30;3.33;;;4.10;99.90;;;;;;5063547;28;20197;-77
2021/03/27 08:04:53;;;;;;;2.60;1.73;;;4.20;99.90;;;;;;5075094;28;20169;-77
2021/03/27 08:07:43;;;;;;;5.83;5.00;;;4.20;99.90;;;;;;5079980;28;20179;-77
2021/03/27 08:10:22;;;;;;;16.90;9.90;;;4.30;99.90;;;;;;5084608;28;20220;-77
2021/03/27 08:13:02;;;;;;;16.73;10.27;;;4.40;99.90;;;;;;5059332;28;20182;-76
2021/03/27 08:15:28;;;;;;;2.60;2.07;;;4.40;99.90;;;;;;5053957;28;20155;-78
2021/03/27 08:18:25;;;;;;;3.53;1.43;;;4.50;99.90;;;;;;5053291;28;20663;-78
2021/03/27 08:21:04;;;;;;;1.40;1.30;;;4.60;99.90;;;;;;5053118;28;20558;-77
2021/03/27 08:23:53;;;;;;;5.73;2.27;;;4.60;99.90;;;;;;5056528;28;20174;-78
2021/03/27 08:26:49;;;;;;;1.87;1.70;;;4.60;99.90;;;;;;5067394;28;20629;-78
2021/03/27 08:29:43;;;;;;;2.47;2.20;;;4.70;99.90;;;;;;5074407;28;20205;-78
2021/03/27 08:32:36;;;;;;;1.73;1.27;;;4.80;99.90;;;;;;5073867;28;20181;-77
2021/03/27 08:35:17;;;;;;;2.50;1.40;;;4.80;99.90;;;;;;5071602;28;20188;-76
2021/03/27 08:38:07;;;;;;;1.27;1.17;;;4.90;99.90;;;;;;5071383;28;20193;-78
2021/03/27 08:40:42;;;;;;;2.17;1.63;;;5.00;99.90;;;;;;5059101;28;20170;-76
2021/03/27 08:43:32;;;;;;;5.97;3.13;;;5.00;99.90;;;;;;5051602;28;20169;-76
2021/03/27 08:46:23;;;;;;;2.57;2.37;;;5.10;99.90;;;;;;5088693;28;20180;-76
2021/03/27 08:49:00;;;;;;;6.13;2.10;;;5.10;99.90;;;;;;5071769;28;20194;-77
2021/03/27 08:51:58;;;;;;;5.77;2.50;;;5.20;99.90;;;;;;5068826;28;20186;-78
2021/03/27 08:55:00;;;;;;;2.23;2.00;;;5.30;99.90;;;;;;5025137;28;20184;-78
2021/03/27 08:57:47;;;;;;;3.47;2.77;;;5.20;99.90;;;;;;5074039;28;20505;-77
2021/03/27 09:00:46;;;;;;;2.23;1.90;;;5.10;99.90;;;;;;5073294;28;20181;-78
2021/03/27 09:03:53;;;;;;;1.60;1.50;;;5.20;99.90;;;;;;5064255;28;20186;-77
2021/03/27 09:06:34;;;;;;;2.07;1.60;;;5.20;99.90;;;;;;5054412;28;20194;-77
2021/03/27 09:09:44;;;;;;;1.30;1.20;;;5.10;99.90;;;;;;5058750;28;20668;-77
2021/03/27 09:12:28;;;;;;;3.57;3.27;;;5.20;99.90;;;;;;5024890;28;20198;-78
2021/03/27 09:15:15;;;;;;;6.50;5.90;;;5.30;99.90;;;;;;5061282;28;20199;-79
2021/03/27 09:18:08;;;;;;;3.67;3.37;;;5.30;99.90;;;;;;5101486;28;20256;-79
2021/03/27 09:20:46;;;;;;;4.50;2.53;;;5.30;99.90;;;;;;5130775;27;20192;-78
2021/03/27 09:23:11;;;;;;;1.90;1.80;;;5.20;99.90;;;;;;5085108;27;20204;-77
2021/03/27 09:25:49;;;;;;;1.33;1.23;;;5.00;99.90;;;;;;5076584;28;20183;-77
2021/03/27 09:28:18;;;;;;;1.70;1.60;;;4.90;99.90;;;;;;5076587;28;20197;-78
2021/03/27 09:30:59;;;;;;;2.27;1.20;;;4.80;99.90;;;;;;5074700;28;20232;-77
2021/03/27 09:33:31;;;;;;;1.37;1.17;;;4.70;99.90;;;;;;5082890;28;20193;-79
2021/03/27 09:36:41;;;;;;;2.33;1.37;;;4.70;99.90;;;;;;5077121;28;20180;-77
2021/03/27 09:39:32;;;;;;;3.10;1.50;;;4.70;99.90;;;;;;5077678;28;20284;-78
2021/03/27 09:42:25;;;;;;;1.70;1.60;;;4.60;99.90;;;;;;5080012;28;20186;-77
2021/03/27 09:45:13;;;;;;;5.33;3.37;;;4.70;99.90;;;;;;5076863;28;20519;-77
2021/03/27 09:48:15;;;;;;;3.10;2.13;;;4.60;99.90;;;;;;5077584;28;20202;-77
2021/03/27 09:51:02;;;;;;;3.50;1.50;;;4.60;99.90;;;;;;5075398;28;20209;-78
2021/03/27 09:53:52;;;;;;;6.13;3.90;;;4.50;99.90;;;;;;5080219;28;20531;-78
2021/03/27 09:56:33;;;;;;;1.70;1.60;;;4.50;99.90;;;;;;5073247;28;20215;-78
2021/03/27 09:59:37;;;;;;;3.97;2.50;;;4.60;99.90;;;;;;5074636;28;20447;-78
2021/03/27 10:02:32;;;;;;;3.33;2.57;;;4.90;99.90;;;;;;5072198;28;20658;-77
2021/03/27 10:05:31;;;;;;;4.67;2.70;;;5.20;99.90;;;;;;5057879;28;20505;-78
2021/03/27 10:08:17;;;;;;;3.83;3.23;;;5.70;99.90;;;;;;5057980;28;20203;-78
2021/03/27 10:10:48;;;;;;;8.07;4.67;;;6.10;99.90;;;;;;5054643;28;20235;-77
2021/03/27 10:13:42;;;;;;;4.27;2.40;;;6.20;99.90;;;;;;5058534;28;20644;-79
2021/03/27 10:16:24;;;;;;;3.10;2.10;;;6.10;99.90;;;;;;5071968;28;20186;-80
2021/03/27 10:19:03;;;;;;;3.00;2.37;;;6.10;99.90;;;;;;5066318;28;20225;-79
2021/03/27 10:21:40;;;;;;;3.90;3.00;;;6.00;99.90;;;;;;5066292;28;20183;-80
2021/03/27 10:24:33;;;;;;;2.67;1.90;;;6.10;99.90;;;;;;5098899;28;20235;-80
2021/03/27 10:27:07;;;;;;;2.87;2.50;;;6.40;99.90;;;;;;5087846;28;20183;-80
2021/03/27 10:29:38;;;;;;;5.50;3.47;;;6.80;99.90;;;;;;5084791;28;20249;-81
2021/03/27 10:32:30;;;;;;;4.37;3.40;;;7.20;99.90;;;;;;5080470;28;20176;-79
2021/03/27 10:35:29;;;;;;;2.77;1.20;;;7.50;99.90;;;;;;5099417;28;20260;-78
2021/03/27 10:38:29;;;;;;;3.07;1.93;;;7.10;99.90;;;;;;5079312;28;20206;-78
2021/03/27 10:40:55;;;;;;;3.53;2.53;;;7.10;99.90;;;;;;5095542;28;20245;-78
2021/03/27 10:43:48;;;;;;;6.47;3.20;;;7.00;99.90;;;;;;5097066;28;20254;-77
2021/03/27 10:46:25;;;;;;;1.57;1.30;;;6.90;99.90;;;;;;5097503;28;20158;-78
2021/03/27 10:48:56;;;;;;;5.67;2.00;;;6.70;99.90;;;;;;5096107;28;20201;-78
2021/03/27 10:51:51;;;;;;;1.33;1.10;;;7.00;99.90;;;;;;5087534;28;20647;-77
2021/03/27 10:54:43;;;;;;;3.37;1.87;;;7.10;99.90;;;;;;5076873;28;20151;-76
2021/03/27 10:57:19;;;;;;;3.53;1.40;;;7.20;99.90;;;;;;5075157;28;20158;-77
2021/03/27 11:00:19;;;;;;;3.07;2.00;;;7.20;99.90;;;;;;5095740;28;20520;-77
2021/03/27 11:02:56;;;;;;;2.80;1.37;;;7.20;99.90;;;;;;5094752;28;20175;-77
2021/03/27 11:05:30;;;;;;;3.60;1.97;;;7.30;99.90;;;;;;5094816;28;20639;-77
2021/03/27 11:08:33;;;;;;;1.77;1.23;;;7.60;99.90;;;;;;5094524;28;20195;-77
2021/03/27 11:11:17;;;;;;;5.87;2.70;;;7.70;99.90;;;;;;5093267;28;20749;-77
2021/03/27 11:14:03;;;;;;;2.87;1.53;;;7.60;99.90;;;;;;5094823;28;20172;-77
2021/03/27 11:16:55;;;;;;;2.53;1.30;;;7.60;99.90;;;;;;5093700;28;20193;-77
2021/03/27 11:19:59;;;;;;;2.20;1.37;;;7.50;99.90;;;;;;5094464;28;20188;-77
2021/03/27 11:22:52;;;;;;;4.23;1.93;;;7.40;99.90;;;;;;5086709;28;20183;-77
2021/03/27 11:25:54;;;;;;;1.70;1.00;;;7.30;99.90;;;;;;5056250;28;20193;-78
2021/03/27 11:28:42;;;;;;;3.67;1.53;;;7.20;99.90;;;;;;5053995;28;20205;-77
2021/03/27 11:31:45;;;;;;;5.47;2.30;;;7.50;99.90;;;;;;5066930;28;20204;-77
2021/03/27 11:34:29;;;;;;;3.70;2.83;;;7.90;99.90;;;;;;5075075;28;20156;-78
2021/03/27 11:37:03;;;;;;;2.70;2.00;;;8.20;99.90;;;;;;5070009;28;20173;-78
2021/03/27 11:39:55;;;;;;;1.33;1.07;;;8.50;99.90;;;;;;5061735;28;20185;-76
2021/03/27 11:42:48;;;;;;;2.10;1.17;;;8.10;99.90;;;;;;5066508;28;20196;-78
2021/03/27 11:45:24;;;;;;;2.80;2.50;;;7.70;99.90;;;;;;5074567;28;20653;-77
2021/03/27 11:48:23;;;;;;;3.23;1.10;;;8.20;99.90;;;;;;5058475;28;20189;-78
2021/03/27 11:50:53;;;;;;;2.00;0.90;;;8.30;99.90;;;;;;5067183;28;20196;-79
2021/03/27 11:53:30;;;;;;;3.63;1.20;;;8.30;99.90;;;;;;5075562;28;20181;-79
2021/03/27 11:56:01;;;;;;;1.47;0.90;;;8.50;99.90;;;;;;5067869;28;20226;-80
2021/03/27 12:02:04;;;;;;;2.80;1.10;;;10.50;99.90;;;;;;5062564;28;20169;-79
2021/03/27 12:05:03;;;;;;;3.10;1.00;;;11.40;99.90;;;;;;5065825;28;20287;-78
2021/03/27 12:07:53;;;;;;;3.53;0.97;;;11.50;97.40;;;;;;5077880;28;20177;-79
2021/03/27 12:10:36;;;;;;;3.43;1.03;;;11.00;97.20;;;;;;5078385;28;20220;-80
2021/03/27 12:13:11;;;;;;;1.73;0.70;;;11.10;95.40;;;;;;5082483;28;20232;-78
2021/03/27 12:16:10;;;;;;;2.07;1.00;;;11.30;94.20;;;;;;5081265;28;20172;-79
2021/03/27 12:19:13;;;;;;;2.47;1.03;;;11.20;93.70;;;;;;5077553;28;20224;-78
2021/03/27 12:22:20;;;;;;;2.20;1.20;;;11.60;92.70;;;;;;5074812;28;20204;-78
2021/03/27 12:25:27;;;;;;;2.63;1.10;;;12.00;92.70;;;;;;5081854;28;20188;-79
2021/03/27 12:28:09;;;;;;;1.13;0.87;;;12.40;90.20;;;;;;5081373;28;20196;-78
2021/03/27 12:30:55;;;;;;;2.43;1.23;;;12.50;88.10;;;;;;5075845;28;20253;-78
2021/03/27 12:33:34;;;;;;;2.90;2.10;;;12.60;89.10;;;;;;5064752;28;20214;-79
2021/03/27 12:36:16;;;;;;;4.50;2.07;;;12.20;86.60;;;;;;5082738;28;20177;-78
2021/03/27 12:39:00;;;;;;;2.60;1.53;;;12.30;90.40;;;;;;5080419;28;20208;-79
2021/03/27 12:42:04;;;;;;;3.10;1.50;;;12.50;85.70;;;;;;5082410;28;20201;-79
2021/03/27 12:44:53;;;;;;;3.17;1.20;;;12.20;86.40;;;;;;5027306;28;20596;-79
2021/03/27 12:47:44;;;;;;;1.53;1.03;;;12.40;85.40;;;;;;5080834;28;20244;-79
2021/03/27 12:50:30;;;;;;;2.37;1.23;;;12.50;85.40;;;;;;5085970;28;20202;-79
2021/03/27 12:53:30;;;;;;;5.07;2.27;;;12.10;83.70;;;;;;5072187;28;20192;-79
2021/03/27 12:56:14;;;;;;;2.27;1.30;;;12.00;88.20;;;;;;5086842;28;20249;-79
2021/03/27 12:59:12;;;;;;;2.20;1.30;;;11.40;86.60;;;;;;5085286;28;20193;-78
2021/03/27 13:01:47;;;;;;;3.27;1.50;;;11.30;88.30;;;;;;5085212;28;20174;-81
2021/03/27 13:04:35;;;;;;;1.77;1.23;;;10.20;90.70;;;;;;5076076;28;20249;-79
2021/03/27 13:07:06;;;;;;;2.10;1.27;;;10.00;91.50;;;;;;5067095;28;20543;-79
2021/03/27 13:09:50;;;;;;;2.33;1.03;;;10.00;92.80;;;;;;5066463;28;20208;-79
2021/03/27 13:13:03;;;;;;;2.43;1.00;;;9.70;93.10;;;;;;5066053;28;20521;-79
2021/03/27 13:15:41;;;;;;;1.90;1.10;;;11.00;91.80;;;;;;5047958;28;20205;-79
2021/03/27 13:18:42;;;;;;;1.63;0.90;;;11.70;89.90;;;;;;5065523;28;20241;-79
2021/03/27 13:21:07;;;;;;;2.60;1.00;;;12.10;89.20;;;;;;5057391;28;20185;-78
2021/03/27 13:23:39;;;;;;;2.30;0.83;;;12.50;87.60;;;;;;5066002;28;20185;-78
2021/03/27 13:26:21;;;;;;;4.30;1.10;;;13.00;87.00;;;;;;5067233;28;20178;-78
2021/03/27 13:29:10;;;;;;;2.27;1.33;;;13.50;83.20;;;;;;5065960;28;20598;-79
2021/03/27 13:31:50;;;;;;;3.20;1.00;;;12.40;84.60;;;;;;5065375;28;20207;-78
2021/03/27 13:34:21;;;;;;;2.63;1.30;;;11.30;88.10;;;;;;5066518;28;20158;-79
2021/03/27 13:36:59;;;;;;;1.87;0.90;;;10.50;90.60;;;;;;5065989;28;20535;-79
2021/03/27 13:39:37;;;;;;;2.80;1.50;;;10.60;90.70;;;;;;5064082;28;20185;-77
2021/03/27 13:42:03;;;;;;;1.53;1.10;;;10.10;91.80;;;;;;5064875;28;20212;-78
2021/03/27 13:45:00;;;;;;;1.90;0.93;;;9.90;93.20;;;;;;5065180;28;20178;-79
2021/03/27 13:47:40;;;;;;;7.87;3.80;;;9.50;93.00;;;;;;5048016;28;20189;-79
2021/03/27 13:50:20;;;;;;;10.63;5.10;;;9.50;94.30;;;;;;5064681;28;20189;-79
2021/03/27 13:53:04;;;;;;;7.43;3.43;;;9.50;94.30;;;;;;5062229;28;20169;-79
2021/03/27 13:55:50;;;;;;;2.00;0.97;;;9.50;95.00;;;;;;5064279;28;20161;-78
2021/03/27 13:58:34;;;;;;;3.63;1.20;;;9.40;91.90;;;;;;5064307;28;20304;-79
2021/03/27 14:01:05;;;;;;;2.60;1.10;;;9.20;90.00;;;;;;5062017;28;20170;-78
2021/03/27 14:04:03;;;;;;;5.30;1.10;;;9.20;89.50;;;;;;5063243;28;20169;-79
2021/03/27 14:06:59;;;;;;;3.13;0.77;;;9.20;90.00;;;;;;5064566;28;20189;-79
2021/03/27 14:09:51;;;;;;;2.30;1.00;;;9.20;89.60;;;;;;5062457;28;20201;-78
2021/03/27 14:12:22;;;;;;;3.33;1.10;;;9.80;90.00;;;;;;5063960;28;20226;-79
2021/03/27 14:15:00;;;;;;;6.47;4.50;;;11.10;85.90;;;;;;5082663;28;20169;-78
2021/03/27 14:17:47;;;;;;;3.97;1.30;;;11.20;82.70;;;;;;5080364;28;20535;-79
2021/03/27 14:20:51;;;;;;;4.50;1.53;;;10.60;82.70;;;;;;5073615;28;20889;-80
2021/03/27 14:23:30;;;;;;;1.70;1.23;;;10.30;85.90;;;;;;5041981;28;20757;-77
2021/03/27 14:26:08;;;;;;;2.67;1.33;;;9.70;88.20;;;;;;5061810;28;20564;-79